Time;durP1;ratioP1;P1;durP2;ratioP2;P2;SDS_P1;SDS_P2;PMS_P1;PMS_P2;Temp;Humidity;BMP_temperature;BMP_pressure;BME280_temperature;BME280_humidity;BME280_pressure;Samples;Min_cycle;Max_cycle;Signal;HPM_P1;HPM_P2
2022/05/12 00:02:04;;;;;;;58.35;41.80;;;16.40;99.90;;;;;;4917116;29;20036;-71
2022/05/12 00:04:31;;;;;;;45.72;31.52;;;16.50;99.90;;;;;;4918464;29;20429;-70
2022/05/12 00:06:58;;;;;;;39.92;27.20;;;16.40;99.90;;;;;;4918344;29;20095;-70
2022/05/12 00:09:26;;;;;;;39.97;26.52;;;16.40;99.90;;;;;;4918239;29;20032;-71
2022/05/12 00:11:52;;;;;;;45.92;29.60;;;16.40;99.90;;;;;;4918011;29;20040;-71
2022/05/12 00:14:18;;;;;;;49.35;30.08;;;16.40;99.90;;;;;;4918528;29;20111;-72
2022/05/12 00:16:44;;;;;;;58.20;32.40;;;16.40;99.90;;;;;;4917906;29;20115;-73
2022/05/12 00:19:10;;;;;;;61.13;37.67;;;16.40;99.90;;;;;;4918139;29;20079;-74
2022/05/12 00:21:36;;;;;;;54.00;33.03;;;16.30;99.90;;;;;;4916814;29;20448;-74
2022/05/12 00:24:02;;;;;;;49.63;28.65;;;16.20;99.90;;;;;;4918379;29;20030;-74
2022/05/12 00:26:31;;;;;;;45.15;27.27;;;16.30;99.90;;;;;;4916695;29;20032;-73
2022/05/12 00:28:59;;;;;;;48.78;26.65;;;16.30;99.90;;;;;;4916424;29;20028;-72
2022/05/12 00:31:28;;;;;;;59.00;25.58;;;16.30;99.90;;;;;;4916360;29;20068;-73
2022/05/12 00:33:55;;;;;;;54.97;24.60;;;16.30;99.90;;;;;;4916086;29;20059;-73
2022/05/12 00:36:21;;;;;;;61.10;23.63;;;16.20;99.90;;;;;;4916521;29;20042;-73
2022/05/12 00:38:47;;;;;;;37.40;20.27;;;16.20;99.90;;;;;;4916471;29;20028;-73
2022/05/12 00:41:13;;;;;;;40.30;19.70;;;16.20;99.90;;;;;;4917426;29;20079;-73
2022/05/12 00:43:44;;;;;;;34.20;19.17;;;16.20;99.90;;;;;;4916357;29;20024;-73
2022/05/12 00:46:17;;;;;;;38.35;20.23;;;16.10;99.90;;;;;;4916442;29;20079;-74
2022/05/12 00:48:45;;;;;;;41.92;19.15;;;16.00;99.90;;;;;;4917616;29;20032;-73
2022/05/12 00:51:14;;;;;;;31.08;17.23;;;16.00;99.90;;;;;;4916279;29;20042;-74
2022/05/12 00:53:40;;;;;;;27.55;16.30;;;16.00;99.90;;;;;;4916253;29;20075;-74
2022/05/12 00:56:11;;;;;;;27.30;15.75;;;16.00;99.90;;;;;;4917542;29;20043;-74
2022/05/12 00:58:38;;;;;;;23.20;15.48;;;16.00;99.90;;;;;;4915390;29;20385;-75
2022/05/12 01:01:07;;;;;;;25.55;16.08;;;16.00;99.90;;;;;;4931630;29;20119;-73
2022/05/12 01:03:33;;;;;;;26.35;15.98;;;16.00;99.90;;;;;;4917656;29;20390;-72
2022/05/12 01:06:03;;;;;;;24.42;14.93;;;15.90;99.90;;;;;;4917411;29;20080;-71
2022/05/12 01:08:29;;;;;;;26.08;16.05;;;15.90;99.90;;;;;;4915908;29;20035;-68
2022/05/12 01:11:03;;;;;;;23.95;15.68;;;15.80;99.90;;;;;;4917285;29;20036;-67
2022/05/12 01:13:31;;;;;;;26.98;16.67;;;15.80;99.90;;;;;;4917029;29;20024;-67
2022/05/12 01:15:59;;;;;;;25.38;16.10;;;15.70;99.90;;;;;;4916231;29;20501;-67
2022/05/12 01:18:28;;;;;;;29.98;16.55;;;15.70;99.90;;;;;;4917177;29;20028;-68
2022/05/12 01:20:54;;;;;;;25.48;16.48;;;15.60;99.90;;;;;;4917126;29;20488;-68
2022/05/12 01:23:26;;;;;;;22.50;15.88;;;15.60;99.90;;;;;;4917142;29;20035;-69
2022/05/12 01:26:06;;;;;;;25.10;14.43;;;15.60;99.90;;;;;;4917081;29;20473;-70
2022/05/12 01:28:32;;;;;;;24.67;15.60;;;15.60;99.90;;;;;;4917050;29;20028;-69
2022/05/12 01:30:59;;;;;;;20.60;14.40;;;15.50;99.90;;;;;;4917068;29;20556;-70
2022/05/12 01:33:25;;;;;;;20.50;14.80;;;15.50;99.90;;;;;;4916754;29;20035;-68
2022/05/12 01:35:51;;;;;;;19.63;15.07;;;15.50;99.90;;;;;;4916993;29;20486;-69
2022/05/12 01:38:17;;;;;;;22.20;14.60;;;15.50;99.90;;;;;;4916926;29;20063;-70
2022/05/12 01:40:44;;;;;;;19.63;14.25;;;15.50;99.90;;;;;;4917174;29;20039;-70
2022/05/12 01:43:12;;;;;;;21.63;14.75;;;15.40;99.90;;;;;;4915537;29;20029;-68
2022/05/12 01:45:38;;;;;;;19.92;13.50;;;15.40;99.90;;;;;;4916931;29;20063;-70
2022/05/12 01:48:06;;;;;;;22.90;14.25;;;15.40;99.90;;;;;;4915575;29;20028;-70
2022/05/12 01:50:33;;;;;;;19.30;13.52;;;15.40;99.90;;;;;;4916774;29;20062;-70
2022/05/12 01:52:59;;;;;;;21.15;13.45;;;15.40;99.90;;;;;;4915537;29;20068;-71
2022/05/12 01:55:26;;;;;;;18.77;13.00;;;15.40;99.90;;;;;;4917137;29;20435;-70
2022/05/12 01:57:52;;;;;;;17.38;13.32;;;15.30;99.90;;;;;;4931281;29;20039;-70
2022/05/12 02:00:22;;;;;;;16.45;13.20;;;15.30;99.90;;;;;;4916788;29;20032;-70
2022/05/12 02:02:49;;;;;;;22.00;13.07;;;15.30;99.90;;;;;;4916738;29;20030;-71
2022/05/12 02:05:15;;;;;;;20.45;13.63;;;15.20;99.90;;;;;;4916773;29;20129;-70
2022/05/12 02:07:43;;;;;;;17.80;12.15;;;15.20;99.90;;;;;;4917021;29;20123;-70
2022/05/12 02:10:13;;;;;;;17.38;12.57;;;15.20;99.90;;;;;;4916923;29;20028;-70
2022/05/12 02:12:39;;;;;;;16.60;12.82;;;15.10;99.90;;;;;;4919128;29;20036;-71
2022/05/12 02:15:06;;;;;;;22.52;13.85;;;15.10;99.90;;;;;;4920149;29;20034;-71
2022/05/12 02:17:32;;;;;;;21.80;15.23;;;14.90;99.90;;;;;;4919075;29;20036;-71
2022/05/12 02:20:00;;;;;;;28.90;15.38;;;14.70;99.90;;;;;;4918973;29;20381;-71
2022/05/12 02:22:27;;;;;;;19.10;12.85;;;14.70;99.90;;;;;;4918977;29;20040;-72
2022/05/12 02:24:53;;;;;;;21.70;13.90;;;14.70;99.90;;;;;;4920277;29;20032;-72
2022/05/12 02:27:20;;;;;;;19.58;13.07;;;14.70;99.90;;;;;;4920163;29;20035;-72
2022/05/12 02:29:46;;;;;;;27.30;14.18;;;14.70;99.90;;;;;;4920025;29;20048;-72
2022/05/12 02:32:12;;;;;;;23.48;12.82;;;14.80;99.90;;;;;;4920065;29;20037;-73
2022/05/12 02:34:38;;;;;;;18.17;13.05;;;14.80;99.90;;;;;;4918166;29;20052;-71
2022/05/12 02:37:05;;;;;;;20.75;14.00;;;14.80;99.90;;;;;;4919969;29;20064;-70
2022/05/12 02:39:38;;;;;;;16.42;12.88;;;14.80;99.90;;;;;;4919964;29;20111;-69
2022/05/12 02:42:06;;;;;;;18.05;13.13;;;14.80;99.90;;;;;;4918683;29;20385;-70
2022/05/12 02:44:32;;;;;;;22.30;14.85;;;14.50;99.90;;;;;;4920151;29;20470;-69
2022/05/12 02:46:58;;;;;;;25.77;16.10;;;14.20;99.90;;;;;;4919869;29;20036;-69
2022/05/12 02:49:24;;;;;;;25.75;16.20;;;14.10;99.90;;;;;;4919636;29;20032;-70
2022/05/12 02:51:51;;;;;;;26.38;16.08;;;14.00;99.90;;;;;;4919730;29;20032;-70
2022/05/12 02:54:18;;;;;;;23.67;15.48;;;14.00;99.90;;;;;;4919705;29;20040;-69
2022/05/12 02:56:44;;;;;;;23.77;14.05;;;14.10;99.90;;;;;;4919755;29;20095;-70
2022/05/12 02:59:11;;;;;;;18.85;13.43;;;14.20;99.90;;;;;;4919355;29;20394;-70
2022/05/12 03:01:37;;;;;;;22.55;12.70;;;14.30;99.90;;;;;;4918294;29;20548;-70
2022/05/12 03:04:04;;;;;;;26.42;13.38;;;14.30;99.90;;;;;;4919480;29;20115;-68
2022/05/12 03:06:30;;;;;;;20.70;13.35;;;14.40;99.90;;;;;;4919559;29;20028;-69
2022/05/12 03:08:56;;;;;;;18.67;13.80;;;14.40;99.90;;;;;;4919334;29;20032;-69
2022/05/12 03:11:22;;;;;;;21.33;13.50;;;14.40;99.90;;;;;;4919422;29;20036;-70
2022/05/12 03:13:49;;;;;;;17.13;14.32;;;14.40;99.90;;;;;;4919620;29;20032;-71
2022/05/12 03:16:16;;;;;;;27.52;13.52;;;14.40;99.90;;;;;;4919349;29;20119;-70
2022/05/12 03:18:43;;;;;;;17.25;12.57;;;14.50;99.90;;;;;;4917937;29;20028;-70
2022/05/12 03:21:09;;;;;;;20.77;12.18;;;14.50;99.90;;;;;;4918283;29;20111;-70
2022/05/12 03:23:35;;;;;;;16.80;13.07;;;14.60;99.90;;;;;;4917858;29;20039;-71
2022/05/12 03:26:01;;;;;;;19.70;12.70;;;14.70;99.90;;;;;;4919164;29;20107;-70
2022/05/12 03:28:27;;;;;;;16.35;12.57;;;14.70;99.90;;;;;;4919048;29;20036;-71
2022/05/12 03:30:53;;;;;;;18.67;12.77;;;14.80;99.90;;;;;;4919036;29;20032;-71
2022/05/12 03:33:19;;;;;;;20.88;11.80;;;14.80;99.90;;;;;;4918801;29;20031;-70
2022/05/12 03:35:45;;;;;;;15.07;12.27;;;14.80;99.90;;;;;;4918999;29;20551;-72
2022/05/12 03:38:11;;;;;;;20.17;13.13;;;14.80;99.90;;;;;;4918928;29;20031;-71
2022/05/12 03:40:37;;;;;;;19.15;13.27;;;14.70;99.90;;;;;;4918912;29;20035;-71
2022/05/12 03:43:03;;;;;;;20.25;12.75;;;14.70;99.90;;;;;;4918847;29;20067;-70
2022/05/12 03:45:30;;;;;;;21.48;13.10;;;14.60;99.90;;;;;;4917471;29;20028;-72
2022/05/12 03:47:56;;;;;;;22.38;13.35;;;14.60;99.90;;;;;;4918697;29;20028;-70
2022/05/12 03:50:25;;;;;;;21.35;14.30;;;14.60;99.90;;;;;;4918592;29;20032;-72
2022/05/12 03:52:52;;;;;;;29.20;14.63;;;14.60;99.90;;;;;;4917413;29;20032;-70
2022/05/12 03:55:24;;;;;;;25.40;14.82;;;14.60;99.90;;;;;;4918611;29;20032;-71
2022/05/12 03:57:53;;;;;;;27.52;16.58;;;14.50;99.90;;;;;;4918644;29;20040;-71
2022/05/12 04:00:23;;;;;;;26.73;16.48;;;14.20;99.90;;;;;;4918503;29;20072;-70
2022/05/12 04:02:50;;;;;;;32.43;17.83;;;14.00;99.90;;;;;;4918543;29;20526;-73
2022/05/12 04:05:18;;;;;;;31.60;17.88;;;13.90;99.90;;;;;;4917061;29;20067;-71
2022/05/12 04:07:44;;;;;;;37.17;19.50;;;13.90;99.90;;;;;;4917124;29;20422;-70
2022/05/12 04:10:15;;;;;;;38.78;20.23;;;13.80;99.90;;;;;;4918287;29;20074;-72
2022/05/12 04:12:41;;;;;;;30.33;19.05;;;13.70;99.90;;;;;;4918330;29;20381;-71
2022/05/12 04:15:08;;;;;;;25.80;18.77;;;13.80;99.90;;;;;;4916987;29;20032;-72
2022/05/12 04:17:35;;;;;;;28.05;19.55;;;13.80;99.90;;;;;;4917993;29;20036;-71
2022/05/12 04:20:04;;;;;;;30.67;18.92;;;13.80;99.90;;;;;;4916856;29;20040;-71
2022/05/12 04:22:30;;;;;;;30.77;17.33;;;14.00;99.90;;;;;;4916823;29;20031;-69
2022/05/12 04:24:56;;;;;;;31.67;18.17;;;14.10;99.90;;;;;;4918312;29;20032;-71
2022/05/12 04:27:22;;;;;;;25.85;16.95;;;14.20;99.90;;;;;;4918088;29;20533;-70
2022/05/12 04:29:48;;;;;;;27.55;15.95;;;14.40;99.90;;;;;;4916590;29;20071;-73
2022/05/12 04:32:14;;;;;;;26.48;17.00;;;14.50;99.90;;;;;;4917812;29;20040;-71
2022/05/12 04:37:26;;;;;;;27.13;17.70;;;14.60;99.90;;;;;;4917907;29;20107;-72
2022/05/12 04:39:52;;;;;;;22.15;15.73;;;14.70;99.90;;;;;;4917761;29;20477;-71
2022/05/12 04:42:18;;;;;;;27.60;16.75;;;14.80;99.90;;;;;;4918001;29;20031;-71
2022/05/12 04:44:44;;;;;;;26.27;14.85;;;15.00;99.90;;;;;;4917724;29;20020;-73
2022/05/12 04:47:09;;;;;;;25.05;15.98;;;15.00;99.90;;;;;;4916366;29;20114;-72
2022/05/12 04:49:35;;;;;;;31.88;15.95;;;15.10;99.90;;;;;;4916197;29;20044;-71
2022/05/12 04:52:02;;;;;;;22.67;15.15;;;15.20;99.90;;;;;;4916298;29;20036;-72
2022/05/12 04:54:29;;;;;;;28.25;15.38;;;15.20;99.90;;;;;;4917553;29;20032;-70
2022/05/12 04:56:56;;;;;;;25.48;15.38;;;15.30;99.90;;;;;;4917593;29;20063;-71
2022/05/12 04:59:22;;;;;;;28.85;15.48;;;15.30;99.90;;;;;;4917184;29;20560;-72
2022/05/12 05:01:48;;;;;;;23.13;15.93;;;15.40;99.90;;;;;;4916052;29;20032;-72
2022/05/12 05:04:14;;;;;;;32.00;17.42;;;15.40;99.90;;;;;;4917389;29;20038;-70
2022/05/12 05:06:39;;;;;;;27.45;17.55;;;15.40;99.90;;;;;;4917436;29;20036;-72
2022/05/12 05:09:06;;;;;;;24.20;18.02;;;15.40;99.90;;;;;;4915898;29;20067;-70
2022/05/12 05:11:36;;;;;;;23.88;17.17;;;15.50;99.90;;;;;;4917257;29;20046;-69
2022/05/12 05:14:02;;;;;;;31.07;17.13;;;15.60;99.90;;;;;;4917017;29;20386;-71
2022/05/12 05:16:29;;;;;;;31.85;17.85;;;15.70;99.90;;;;;;4917243;29;20255;-70
2022/05/12 05:18:55;;;;;;;32.97;18.38;;;15.70;99.90;;;;;;4917183;29;20040;-72
2022/05/12 05:21:20;;;;;;;31.95;18.13;;;15.80;99.90;;;;;;4916803;29;20112;-72
2022/05/12 05:23:46;;;;;;;23.17;16.58;;;15.90;99.90;;;;;;4915715;29;20032;-72
2022/05/12 05:26:12;;;;;;;32.13;18.40;;;16.00;99.90;;;;;;4915632;29;20469;-72
2022/05/12 05:28:39;;;;;;;35.20;18.08;;;16.10;99.90;;;;;;4916934;29;20079;-71
2022/05/12 05:31:05;;;;;;;36.13;18.67;;;16.10;99.90;;;;;;4915638;29;20430;-71
2022/05/12 05:33:32;;;;;;;39.67;18.60;;;16.00;99.90;;;;;;4916784;29;20052;-70
2022/05/12 05:35:58;;;;;;;27.70;19.33;;;15.90;99.90;;;;;;4915416;29;20079;-71
2022/05/12 05:38:24;;;;;;;27.65;17.70;;;16.00;99.90;;;;;;4915572;29;20091;-70
2022/05/12 05:40:50;;;;;;;43.15;18.33;;;16.10;99.90;;;;;;4916767;29;20120;-72
2022/05/12 05:43:16;;;;;;;23.30;16.45;;;16.20;99.90;;;;;;4914220;29;20107;-71
2022/05/12 05:45:42;;;;;;;24.13;15.00;;;16.20;99.90;;;;;;4932356;29;20061;-71
2022/05/12 05:48:08;;;;;;;26.80;16.65;;;16.20;99.90;;;;;;4935582;29;20036;-72
2022/05/12 05:53:27;;;;;;;25.20;17.30;;;16.50;99.90;;;;;;4935632;29;20044;-72
2022/05/12 05:55:55;;;;;;;28.40;19.25;;;16.60;99.90;;;;;;4935439;29;20036;-71
2022/05/12 05:58:21;;;;;;;25.60;19.10;;;16.70;99.90;;;;;;4935581;29;20469;-71
2022/05/12 06:00:48;;;;;;;29.83;17.45;;;16.80;99.90;;;;;;4934129;29;20388;-71
2022/05/12 06:03:14;;;;;;;24.98;18.08;;;16.90;99.90;;;;;;4929831;29;20056;-67
2022/05/12 06:05:41;;;;;;;24.70;18.23;;;17.10;99.90;;;;;;4916184;29;20052;-67
2022/05/12 06:08:13;;;;;;;29.30;17.60;;;17.20;99.90;;;;;;4916584;29;20032;-67
2022/05/12 06:10:40;;;;;;;26.75;17.58;;;17.20;99.90;;;;;;4916297;29;20447;-67
2022/05/12 06:13:06;;;;;;;27.60;17.38;;;17.30;99.90;;;;;;4916073;29;20039;-67
2022/05/12 06:15:34;;;;;;;24.77;17.40;;;17.40;99.90;;;;;;4915915;29;20075;-68
2022/05/12 06:18:00;;;;;;;25.10;17.50;;;17.60;99.90;;;;;;4916326;29;20079;-67
2022/05/12 06:20:26;;;;;;;22.17;16.77;;;17.70;99.90;;;;;;4916306;29;20035;-67
2022/05/12 06:22:52;;;;;;;30.17;16.88;;;17.80;99.90;;;;;;4916448;29;20114;-66
2022/05/12 06:25:18;;;;;;;26.38;16.00;;;17.90;99.90;;;;;;4915049;29;20024;-66
2022/05/12 06:27:45;;;;;;;29.17;16.80;;;18.10;99.90;;;;;;4914931;29;20374;-67
2022/05/12 06:30:12;;;;;;;22.05;15.23;;;18.20;99.90;;;;;;4914938;29;20514;-67
2022/05/12 06:32:42;;;;;;;16.55;14.20;;;18.30;99.90;;;;;;4916318;29;20381;-67
2022/05/12 06:35:10;;;;;;;16.55;13.05;;;18.40;99.90;;;;;;4916073;29;20151;-69
2022/05/12 06:37:36;;;;;;;16.60;13.27;;;18.50;99.90;;;;;;4916175;29;20036;-68
2022/05/12 06:40:03;;;;;;;19.85;14.13;;;18.50;99.90;;;;;;4914922;29;20183;-68
2022/05/12 06:42:30;;;;;;;28.55;13.50;;;;;;;;;;4916257;29;20111;-67
2022/05/12 06:44:56;;;;;;;19.27;13.40;;;18.70;99.90;;;;;;4916337;29;20168;-67
2022/05/12 06:47:22;;;;;;;20.63;14.55;;;18.90;99.90;;;;;;4916121;29;20024;-68
2022/05/12 06:49:50;;;;;;;20.45;14.38;;;19.00;99.90;;;;;;4926212;29;20043;-67
2022/05/12 06:52:17;;;;;;;17.60;12.80;;;19.20;99.90;;;;;;4935271;29;20491;-65
2022/05/12 06:54:44;;;;;;;17.20;11.90;;;19.30;99.90;;;;;;4933881;29;20047;-67
2022/05/12 06:57:12;;;;;;;48.25;14.88;;;19.40;99.90;;;;;;4936395;29;20473;-68
2022/05/12 06:59:40;;;;;;;21.35;13.20;;;19.50;99.90;;;;;;4937123;29;20531;-67
2022/05/12 07:02:07;;;;;;;21.63;12.70;;;19.70;99.90;;;;;;4932998;29;20028;-67
2022/05/12 07:04:33;;;;;;;20.88;11.35;;;19.80;99.90;;;;;;4937591;29;20027;-67
2022/05/12 07:06:59;;;;;;;20.92;11.38;;;19.90;99.90;;;;;;4937058;29;20358;-68
2022/05/12 07:09:26;;;;;;;16.60;11.27;;;20.00;99.90;;;;;;4936916;29;20039;-68
2022/05/12 07:11:51;;;;;;;14.02;10.32;;;20.10;99.90;;;;;;4938245;29;20536;-68
2022/05/12 07:14:17;;;;;;;15.75;9.80;;;20.20;99.90;;;;;;4938331;29;20039;-68
2022/05/12 07:16:47;;;;;;;17.08;11.80;;;20.40;99.90;;;;;;4938201;29;20461;-68
2022/05/12 07:19:15;;;;;;;16.23;9.20;;;20.50;99.90;;;;;;4938189;29;20046;-68
2022/05/12 07:27:15;;;;;;;17.17;7.93;;;20.80;99.90;;;;;;4920911;29;20063;-68
2022/05/12 07:29:41;;;;;;;12.80;8.52;;;;;;;;;;4918952;29;20032;-69
2022/05/12 07:32:08;;;;;;;12.15;8.45;;;21.10;99.90;;;;;;4918869;29;20036;-68
2022/05/12 07:34:34;;;;;;;13.98;8.93;;;21.40;99.90;;;;;;4917240;29;20060;-68
2022/05/12 07:37:01;;;;;;;15.30;8.85;;;21.50;99.90;;;;;;4933315;29;20035;-67
2022/05/12 07:39:29;;;;;;;14.30;9.20;;;21.60;99.90;;;;;;4917496;29;20028;-65
2022/05/12 07:41:57;;;;;;;13.45;9.13;;;21.80;99.90;;;;;;4918632;29;20028;-75
2022/05/12 07:44:31;;;;;;;13.25;9.27;;;21.90;99.90;;;;;;4917080;29;20087;-70
2022/05/12 07:47:16;;;;;;;14.30;8.98;;;22.00;99.90;;;;;;4916471;29;20592;-70
2022/05/12 07:49:42;;;;;;;18.58;9.48;;;22.30;99.90;;;;;;4918595;29;20036;-69
2022/05/12 07:52:12;;;;;;;15.63;9.45;;;22.20;99.90;;;;;;4918496;29;20141;-68
2022/05/12 07:54:38;;;;;;;12.68;9.43;;;;;;;;;;4918513;29;20024;-71
2022/05/12 07:57:05;;;;;;;11.73;7.93;;;;;;;;;;4917223;29;20025;-69
2022/05/12 07:59:32;;;;;;;11.35;7.57;;;22.40;99.90;;;;;;4918456;29;20039;-66
2022/05/12 08:01:58;;;;;;;8.73;6.88;;;;;;;;;;4918371;29;20028;-68
2022/05/12 08:04:25;;;;;;;93.63;13.43;;;22.70;99.90;;;;;;4918262;29;20035;-68
2022/05/12 08:06:51;;;;;;;32.38;7.78;;;22.90;99.90;;;;;;4918200;29;20115;-68
2022/05/12 08:09:18;;;;;;;16.35;5.82;;;23.10;99.90;;;;;;4916400;29;20032;-69
2022/05/12 08:11:44;;;;;;;7.93;5.88;;;23.20;99.90;;;;;;4916752;29;20032;-69
2022/05/12 08:14:10;;;;;;;7.78;5.68;;;23.30;99.90;;;;;;4916591;29;20111;-68
2022/05/12 08:16:37;;;;;;;7.57;5.75;;;23.40;99.90;;;;;;4917943;29;20036;-69
2022/05/12 08:19:03;;;;;;;7.47;5.50;;;23.50;99.90;;;;;;4918093;29;20039;-69
2022/05/12 08:21:29;;;;;;;9.85;5.28;;;;;;;;;;4917900;29;20425;-70
2022/05/12 08:23:55;;;;;;;10.82;5.53;;;;;;;;;;4916602;29;20031;-69
2022/05/12 08:26:22;;;;;;;13.45;6.80;;;;;;;;;;4917827;29;20376;-70
2022/05/12 08:28:50;;;;;;;13.25;6.22;;;;;;;;;;4917989;29;20415;-71
2022/05/12 08:31:17;;;;;;;11.68;6.07;;;;;;;;;;4917699;29;20076;-66
2022/05/12 08:33:43;;;;;;;10.65;5.72;;;;;;;;;;4916204;29;20497;-72
2022/05/12 08:36:10;;;;;;;11.45;6.18;;;;;;;;;;4917746;29;20087;-66
2022/05/12 08:38:40;;;;;;;16.35;6.85;;;24.80;99.90;;;;;;4916451;29;20032;-67
2022/05/12 08:41:18;;;;;;;18.08;8.55;;;24.70;98.30;;;;;;4916321;29;20111;-67
2022/05/12 08:43:43;;;;;;;9.73;5.97;;;24.70;99.00;;;;;;4917892;29;20119;-69
2022/05/12 08:46:35;;;;;;;8.05;5.93;;;25.00;99.90;;;;;;4917475;29;20028;-67
2022/05/12 08:49:16;;;;;;;10.70;6.68;;;;;;;;;;4911810;29;20182;-66
2022/05/12 08:51:46;;;;;;;13.95;6.75;;;25.20;99.90;;;;;;4917408;29;20031;-65
2022/05/12 08:54:19;;;;;;;11.70;6.55;;;25.30;99.40;;;;;;4917328;29;20028;-66
2022/05/12 08:56:45;;;;;;;13.55;7.18;;;25.40;96.10;;;;;;4917408;29;20040;-67
2022/05/12 08:59:12;;;;;;;17.40;7.25;;;25.40;96.40;;;;;;4917318;29;20032;-67
2022/05/12 09:01:49;;;;;;;12.60;5.03;;;25.50;96.10;;;;;;4917210;29;20087;-67
2022/05/12 09:04:44;;;;;;;9.77;4.90;;;25.70;96.10;;;;;;4917108;29;20499;-66
2022/05/12 09:07:44;;;;;;;6.65;4.68;;;25.80;93.20;;;;;;4915564;29;20071;-66
2022/05/12 09:10:10;;;;;;;6.53;4.53;;;;;;;;;;4916782;29;20370;-67
2022/05/12 09:12:54;;;;;;;7.88;5.32;;;;;;;;;;4916928;29;20418;-70
2022/05/12 09:15:28;;;;;;;7.60;4.20;;;26.00;94.20;;;;;;4916628;29;20032;-69
2022/05/12 09:17:58;;;;;;;12.57;4.88;;;26.60;92.40;;;;;;4916958;29;20028;-69
2022/05/12 09:20:25;;;;;;;12.17;5.50;;;;;;;;;;4916226;29;20138;-67
2022/05/12 09:22:51;;;;;;;11.60;4.53;;;26.60;93.30;;;;;;4932341;29;20440;-66
2022/05/12 09:25:30;;;;;;;7.80;4.05;;;;;;;;;;4954768;28;20065;-70
2022/05/12 09:27:59;;;;;;;7.70;4.45;;;;;;;;;;4951750;29;20028;-71
2022/05/12 09:30:34;;;;;;;11.13;4.00;;;27.00;89.30;;;;;;4934093;29;20425;-68
2022/05/12 09:33:01;;;;;;;28.25;5.15;;;27.30;92.20;;;;;;4935829;29;20499;-69
2022/05/12 09:35:28;;;;;;;8.07;4.63;;;;;;;;;;4934762;29;20058;-68
2022/05/12 09:37:55;;;;;;;27.35;5.28;;;27.40;91.10;;;;;;4930297;29;20103;-69
2022/05/12 09:40:23;;;;;;;10.55;3.80;;;;;;;;;;4915060;29;20428;-69
2022/05/12 09:42:53;;;;;;;5.25;3.78;;;;;;;;;;4916636;29;20025;-69
2022/05/12 09:45:22;;;;;;;11.37;3.50;;;;;;;;;;4914581;29;20024;-66
2022/05/12 09:47:48;;;;;;;5.60;3.72;;;;;;;;;;4929382;29;20164;-69
2022/05/12 09:50:16;;;;;;;6.07;3.45;;;;;;;;;;4915458;29;20029;-69
2022/05/12 09:53:03;;;;;;;6.38;3.58;;;27.60;91.30;;;;;;4916995;29;20083;-70
2022/05/12 09:55:57;;;;;;;8.38;3.63;;;28.40;82.20;;;;;;4915868;29;20043;-71
2022/05/12 09:58:37;;;;;;;8.45;3.83;;;28.40;76.80;;;;;;4914885;29;20111;-72
2022/05/12 10:01:13;;;;;;;4.18;3.45;;;;;;;;;;4915401;29;20032;-70
2022/05/12 10:09:30;;;;;;;9.00;3.30;;;28.80;78.60;;;;;;4915020;29;20092;-73
2022/05/12 10:12:17;;;;;;;8.02;3.47;;;29.10;78.30;;;;;;4916339;29;20040;-73
2022/05/12 10:14:49;;;;;;;8.05;3.50;;;;;;;;;;4916635;29;20474;-73
2022/05/12 10:17:26;;;;;;;8.02;3.75;;;;;;;;;;4915965;29;20023;-74
2022/05/12 10:19:54;;;;;;;7.53;3.75;;;29.30;78.10;;;;;;4915276;29;20060;-73
2022/05/12 10:22:48;;;;;;;8.82;3.83;;;29.40;76.50;;;;;;4916538;29;20107;-73
2022/05/12 10:25:14;;;;;;;7.20;3.88;;;;;;;;;;4916527;29;20032;-73
2022/05/12 10:27:53;;;;;;;5.85;3.25;;;;;;;;;;4915206;29;20024;-74
2022/05/12 10:30:26;;;;;;;7.80;4.05;;;;;;;;;;4915513;29;20040;-73
2022/05/12 10:33:07;;;;;;;7.22;4.25;;;31.20;74.60;;;;;;4920065;29;20036;-73
2022/05/12 10:35:59;;;;;;;9.25;3.38;;;31.70;70.90;;;;;;4920019;29;20126;-74
2022/05/12 10:38:55;;;;;;;5.50;3.33;;;;;;;;;;4919920;29;20450;-74
2022/05/12 10:41:50;;;;;;;6.32;3.50;;;;;;;;;;4884681;29;20048;-74
2022/05/12 10:44:26;;;;;;;4.75;3.35;;;;;;;;;;4910897;29;20508;-74
2022/05/12 10:47:01;;;;;;;7.18;4.03;;;;;;;;;;4919450;29;20035;-74
2022/05/12 10:49:41;;;;;;;9.38;3.65;;;33.30;67.40;;;;;;4919757;29;20039;-74
2022/05/12 10:52:07;;;;;;;8.90;3.42;;;33.30;65.00;;;;;;4919761;29;20115;-75
2022/05/12 10:54:33;;;;;;;8.73;3.10;;;;;;;;;;4918382;29;20111;-74
2022/05/12 10:57:17;;;;;;;6.70;3.45;;;34.30;59.20;;;;;;4919604;29;20099;-74
2022/05/12 10:59:54;;;;;;;9.65;3.70;;;34.50;59.20;;;;;;4919666;29;20028;-74
2022/05/12 11:02:26;;;;;;;6.78;3.30;;;34.40;60.80;;;;;;4919589;29;20033;-74
2022/05/12 11:05:06;;;;;;;7.22;3.88;;;35.20;59.10;;;;;;4919801;29;20136;-75
2022/05/12 11:07:40;;;;;;;14.95;4.03;;;35.50;58.10;;;;;;4919539;29;20083;-74
2022/05/12 11:10:24;;;;;;;10.13;3.13;;;;;;;;;;4919406;29;20036;-73
2022/05/12 11:12:53;;;;;;;8.05;3.38;;;36.50;68.30;;;;;;4919361;29;20108;-73
2022/05/12 11:15:24;;;;;;;8.50;3.63;;;36.50;65.10;;;;;;4919301;29;20052;-74
2022/05/12 11:17:54;;;;;;;7.85;3.15;;;;;;;;;;4919517;29;20058;-73
2022/05/12 11:20:25;;;;;;;6.30;3.42;;;36.50;55.90;;;;;;4919235;29;20036;-74
2022/05/12 11:23:35;;;;;;;7.25;3.67;;;37.00;53.20;;;;;;4919199;29;20126;-75
2022/05/12 11:26:32;;;;;;;6.65;3.25;;;37.20;54.50;;;;;;4878965;29;20068;-75
2022/05/12 11:32:21;;;;;;;5.20;3.10;;;37.50;53.90;;;;;;4879004;29;20056;-74
2022/05/12 11:34:52;;;;;;;7.68;3.30;;;38.20;67.50;;;;;;4878827;29;20049;-74
2022/05/12 11:37:38;;;;;;;6.40;3.33;;;38.40;54.00;;;;;;4863317;29;20497;-75
2022/05/12 11:40:08;;;;;;;9.40;3.67;;;38.20;53.70;;;;;;4878951;29;20406;-75
2022/05/12 11:45:50;;;;;;;6.15;3.03;;;38.10;51.50;;;;;;4879161;29;20035;-75
2022/05/12 11:48:30;;;;;;;6.88;3.30;;;;;;;;;;4878829;29;20072;-74
2022/05/12 11:51:17;;;;;;;7.60;6.27;;;38.70;50.70;;;;;;4878658;29;20061;-76
2022/05/12 11:54:01;;;;;;;8.93;3.15;;;39.20;53.10;;;;;;4878659;29;20076;-75
2022/05/12 11:56:33;;;;;;;6.15;3.13;;;;;;;;;;4878619;29;20051;-75
2022/05/12 11:59:33;;;;;;;6.10;2.97;;;;;;;;;;4878537;29;20040;-74
2022/05/12 12:02:05;;;;;;;6.40;3.10;;;;;;;;;;4851609;29;20029;-74
2022/05/12 12:04:37;;;;;;;9.50;3.22;;;;;;;;;;4878378;29;20041;-75
2022/05/12 12:07:06;;;;;;;4.47;3.08;;;;;;;;;;4862823;29;20036;-75
2022/05/12 12:09:54;;;;;;;4.90;2.85;;;38.60;49.20;;;;;;4878349;29;20443;-75
2022/05/12 12:12:42;;;;;;;10.85;3.38;;;40.70;49.80;;;;;;4878538;29;20438;-75
2022/05/12 12:15:30;;;;;;;5.18;3.55;;;;;;;;;;4862704;29;20033;-75
2022/05/12 12:17:57;;;;;;;4.53;2.92;;;;;;;;;;4878091;29;20047;-75
2022/05/12 12:20:29;;;;;;;6.28;3.00;;;;;;;;;;4862501;29;20602;-74
2022/05/12 12:23:18;;;;;;;6.18;2.90;;;;;;;;;;4878070;29;20627;-75
2022/05/12 12:25:46;;;;;;;5.05;2.70;;;;;;;;;;4878071;29;20380;-75
2022/05/12 12:28:28;;;;;;;8.82;3.40;;;;;;;;;;4878286;29;20028;-74
2022/05/12 12:30:54;;;;;;;5.13;2.70;;;;;;;;;;4877854;29;20045;-75
2022/05/12 12:33:20;;;;;;;6.45;2.70;;;;;;;;;;4877599;29;20537;-74
2022/05/12 12:35:49;;;;;;;6.75;2.65;;;40.90;61.70;;;;;;4877962;29;20040;-75
2022/05/12 12:38:48;;;;;;;9.75;3.03;;;43.10;44.40;;;;;;4909488;29;20036;-75
2022/05/12 12:41:37;;;;;;;7.88;3.30;;;43.10;47.00;;;;;;4916938;29;20075;-75
2022/05/12 12:44:14;;;;;;;5.57;3.58;;;43.10;46.20;;;;;;4917746;29;20032;-75
2022/05/12 12:47:08;;;;;;;3.55;2.53;;;42.50;44.10;;;;;;4917619;29;20119;-75
2022/05/12 12:50:02;;;;;;;10.00;2.92;;;43.20;44.80;;;;;;4917767;29;20028;-75
2022/05/12 12:52:28;;;;;;;10.02;3.10;;;44.20;51.50;;;;;;4916349;29;20079;-74
2022/05/12 12:57:39;;;;;;;9.23;2.90;;;44.00;48.40;;;;;;4917416;29;20083;-74
2022/05/12 13:00:09;;;;;;;7.00;3.30;;;43.70;43.20;;;;;;4916023;29;20462;-74
2022/05/12 13:02:41;;;;;;;6.57;3.05;;;43.90;44.00;;;;;;4917368;29;20039;-74
2022/05/12 13:05:28;;;;;;;9.32;3.40;;;44.10;45.60;;;;;;4917092;29;20051;-74
2022/05/12 13:08:01;;;;;;;6.15;3.20;;;44.20;43.60;;;;;;4917084;29;20084;-75
2022/05/12 13:10:28;;;;;;;4.38;3.30;;;43.80;43.40;;;;;;4917125;29;20064;-74
2022/05/12 13:13:05;;;;;;;6.00;2.65;;;44.00;43.80;;;;;;4917236;29;20032;-75
2022/05/12 13:15:33;;;;;;;2.60;2.35;;;44.50;41.90;;;;;;4917238;29;20028;-74
2022/05/12 13:18:03;;;;;;;4.28;2.90;;;43.30;42.00;;;;;;4917102;29;20099;-74
2022/05/12 13:20:38;;;;;;;3.35;2.85;;;43.90;43.40;;;;;;4917363;29;20028;-73
2022/05/12 13:23:17;;;;;;;2.97;2.63;;;44.20;44.70;;;;;;4916814;29;20032;-74
2022/05/12 13:25:43;;;;;;;3.58;2.45;;;45.10;42.50;;;;;;4917090;29;20517;-74
2022/05/12 13:28:24;;;;;;;3.08;2.60;;;46.20;41.60;;;;;;4915729;29;20171;-74
2022/05/12 13:31:09;;;;;;;3.58;2.53;;;45.90;40.60;;;;;;4917028;29;20056;-74
2022/05/12 13:33:35;;;;;;;7.07;2.80;;;46.20;42.20;;;;;;4916891;29;20055;-73